Time;durP1;ratioP1;P1;durP2;ratioP2;P2;SDS_P1;SDS_P2;PMS_P1;PMS_P2;Temp;Humidity;BMP_temperature;BMP_pressure;BME280_temperature;BME280_humidity;BME280_pressure;Samples;Min_cycle;Max_cycle;Signal;HPM_P1;HPM_P2
2021/09/06 00:00:38;;;;;;;;;;;14.90;99.90;;;;;;4985991;28;19930;-88
2021/09/06 00:03:04;;;;;;;;;;;14.80;99.90;;;;;;4972997;28;19965;-88
2021/09/06 00:05:31;;;;;;;;;;;14.80;99.90;;;;;;4979946;28;19973;-88
2021/09/06 00:07:59;;;;;;;;;;;14.80;99.90;;;;;;4987221;28;20040;-88
2021/09/06 00:10:40;;;;;;;;;;;14.70;99.90;;;;;;4985706;28;19969;-88
2021/09/06 00:13:07;;;;;;;;;;;14.60;99.90;;;;;;4984285;28;19948;-88
2021/09/06 00:15:34;;;;;;;;;;;14.50;99.90;;;;;;4984503;28;19940;-87
2021/09/06 00:18:01;;;;;;;;;;;14.50;99.90;;;;;;4979526;28;19965;-88
2021/09/06 00:20:28;;;;;;;;;;;14.40;99.90;;;;;;4975162;28;19945;-87
2021/09/06 00:22:54;;;;;;;;;;;14.50;99.90;;;;;;4981072;28;19922;-87
2021/09/06 00:25:23;;;;;;;;;;;14.50;99.90;;;;;;4990376;28;19988;-87
2021/09/06 00:27:49;;;;;;;;;;;14.50;99.90;;;;;;4985788;28;20020;-87
2021/09/06 00:30:16;;;;;;;;;;;14.60;99.90;;;;;;4982192;28;19922;-87
2021/09/06 00:32:43;;;;;;;;;;;14.60;99.90;;;;;;4969763;28;19925;-87
2021/09/06 00:35:10;;;;;;;;;;;14.50;99.90;;;;;;4977415;28;19949;-87
2021/09/06 00:37:37;;;;;;;;;;;14.50;99.90;;;;;;4985282;28;20372;-87
2021/09/06 00:40:04;;;;;;;;;;;14.50;99.90;;;;;;4990478;28;19922;-87
2021/09/06 00:42:32;;;;;;;;;;;14.50;99.90;;;;;;4983917;28;19928;-85
2021/09/06 00:44:59;;;;;;;;;;;14.50;99.90;;;;;;4982244;28;19928;-86
2021/09/06 00:47:26;;;;;;;;;;;14.40;99.90;;;;;;4990569;28;19980;-87
2021/09/06 00:49:52;;;;;;;;;;;14.50;99.90;;;;;;4981342;28;19922;-87
2021/09/06 00:52:19;;;;;;;;;;;14.50;99.90;;;;;;4996046;28;20457;-87
2021/09/06 00:54:46;;;;;;;;;;;14.50;99.90;;;;;;4995923;28;20026;-86
2021/09/06 00:57:13;;;;;;;;;;;14.40;99.90;;;;;;4977182;28;19992;-87
2021/09/06 00:59:41;;;;;;;;;;;14.50;99.90;;;;;;4979508;28;19922;-87
2021/09/06 01:02:07;;;;;;;;;;;14.40;99.90;;;;;;4988683;28;20357;-87
2021/09/06 01:04:34;;;;;;;;;;;14.40;99.90;;;;;;4983551;28;19921;-88
2021/09/06 01:07:01;;;;;;;;;;;14.60;99.90;;;;;;4987818;28;19921;-89
2021/09/06 01:09:27;;;;;;;;;;;14.30;99.90;;;;;;4989554;28;19962;-88
2021/09/06 01:11:54;;;;;;;;;;;14.10;99.90;;;;;;4984602;28;19928;-88
2021/09/06 01:14:22;;;;;;;;;;;14.00;99.90;;;;;;4987587;28;20024;-88
2021/09/06 01:16:50;;;;;;;;;;;14.00;99.90;;;;;;4979815;28;19974;-88
2021/09/06 01:19:17;;;;;;;;;;;14.00;99.90;;;;;;4984356;28;20048;-88
2021/09/06 01:21:44;;;;;;;;;;;14.00;99.90;;;;;;4989493;28;19955;-88
2021/09/06 01:24:11;;;;;;;;;;;14.10;99.90;;;;;;4995996;28;19961;-88
2021/09/06 01:26:39;;;;;;;;;;;14.10;99.90;;;;;;4992973;28;20015;-89
2021/09/06 01:29:07;;;;;;;;;;;14.10;99.90;;;;;;4980122;28;19926;-89
2021/09/06 01:31:34;;;;;;;;;;;14.10;99.90;;;;;;4980882;28;19957;-89
2021/09/06 01:34:00;;;;;;;;;;;14.10;99.90;;;;;;4988134;28;20017;-89
2021/09/06 01:36:27;;;;;;;;;;;14.00;99.90;;;;;;4999652;28;19972;-90
2021/09/06 01:38:54;;;;;;;;;;;14.10;99.90;;;;;;5000306;28;21612;-90
2021/09/06 01:41:20;;;;;;;;;;;13.90;99.90;;;;;;5004424;28;20444;-90
2021/09/06 01:43:48;;;;;;;;;;;13.80;99.90;;;;;;5001684;28;20423;-89
2021/09/06 01:46:15;;;;;;;;;;;13.70;99.90;;;;;;5002887;28;19933;-89
2021/09/06 01:48:42;;;;;;;;;;;13.70;99.90;;;;;;5001158;28;19922;-89
2021/09/06 01:51:08;;;;;;;;;;;13.70;99.90;;;;;;4981896;28;20286;-89
2021/09/06 01:53:35;;;;;;;;;;;13.80;99.90;;;;;;4999278;28;20038;-89
2021/09/06 01:56:02;;;;;;;;;;;13.80;99.90;;;;;;4992783;28;19961;-90
2021/09/06 01:58:29;;;;;;;;;;;13.70;99.90;;;;;;4993684;28;20007;-88
2021/09/06 02:00:57;;;;;;;;;;;13.60;99.90;;;;;;4995633;28;19989;-89
2021/09/06 02:03:23;;;;;;;;;;;13.60;99.90;;;;;;4993575;28;20030;-90
2021/09/06 02:05:50;;;;;;;;;;;13.80;99.90;;;;;;4983406;28;20452;-91
2021/09/06 02:08:17;;;;;;;;;;;13.60;99.90;;;;;;4982513;28;19962;-89
2021/09/06 02:10:44;;;;;;;;;;;13.50;99.90;;;;;;4986636;28;20049;-88
2021/09/06 02:13:11;;;;;;;;;;;13.60;99.90;;;;;;4984155;28;19964;-89
2021/09/06 02:15:37;;;;;;;;;;;13.50;99.90;;;;;;4990009;28;20044;-89
2021/09/06 02:18:05;;;;;;;;;;;13.50;99.90;;;;;;4985558;28;20041;-90
2021/09/06 02:20:32;;;;;;;;;;;13.50;99.90;;;;;;4977940;28;20050;-90
2021/09/06 02:22:59;;;;;;;;;;;13.50;99.90;;;;;;4968899;28;20431;-91
2021/09/06 02:25:25;;;;;;;;;;;13.50;99.90;;;;;;4984562;28;20328;-90
2021/09/06 02:27:52;;;;;;;;;;;13.60;99.90;;;;;;4984881;28;19936;-90
2021/09/06 02:30:19;;;;;;;;;;;13.50;99.90;;;;;;4985453;28;19944;-89
2021/09/06 02:32:46;;;;;;;;;;;13.50;99.90;;;;;;4980347;28;19938;-90
2021/09/06 02:35:14;;;;;;;;;;;13.40;99.90;;;;;;4984561;28;19939;-90
2021/09/06 02:37:40;;;;;;;;;;;13.50;99.90;;;;;;4988820;28;20485;-91
2021/09/06 02:40:08;;;;;;;;;;;13.60;99.90;;;;;;4990054;28;19978;-90
2021/09/06 02:42:34;;;;;;;;;;;13.50;99.90;;;;;;4993336;28;19963;-90
2021/09/06 02:45:01;;;;;;;;;;;13.40;99.90;;;;;;4986624;28;19963;-89
2021/09/06 02:47:29;;;;;;;;;;;13.40;99.90;;;;;;4986486;28;20009;-89
2021/09/06 02:49:57;;;;;;;;;;;13.40;99.90;;;;;;4992342;28;19922;-89
2021/09/06 02:52:25;;;;;;;;;;;13.50;99.90;;;;;;4988173;28;20340;-89
2021/09/06 02:54:52;;;;;;;;;;;13.40;99.90;;;;;;4987733;28;19922;-89
2021/09/06 02:57:19;;;;;;;;;;;13.50;99.90;;;;;;4992139;28;19922;-90
2021/09/06 02:59:46;;;;;;;;;;;13.50;99.90;;;;;;4997006;28;19961;-90
2021/09/06 03:02:12;;;;;;;;;;;13.40;99.90;;;;;;4992935;28;20424;-89
2021/09/06 03:04:39;;;;;;;;;;;13.40;99.90;;;;;;4980640;28;19984;-90
2021/09/06 03:07:06;;;;;;;;;;;13.30;99.90;;;;;;4986209;28;20056;-90
2021/09/06 03:09:34;;;;;;;;;;;13.40;99.90;;;;;;4972535;28;19954;-88
2021/09/06 03:12:00;;;;;;;;;;;13.40;99.90;;;;;;4987161;28;20423;-90
2021/09/06 03:14:27;;;;;;;;;;;13.30;99.90;;;;;;4986022;28;20009;-89
2021/09/06 03:16:54;;;;;;;;;;;13.30;99.90;;;;;;4990212;28;20393;-90
2021/09/06 03:19:21;;;;;;;;;;;13.30;99.90;;;;;;4987095;28;20041;-88
2021/09/06 03:21:48;;;;;;;;;;;13.30;99.90;;;;;;4978225;28;20614;-88
2021/09/06 03:24:15;;;;;;;;;;;13.30;99.90;;;;;;4975978;28;20340;-87
2021/09/06 03:26:43;;;;;;;;;;;13.20;99.90;;;;;;4987972;28;19932;-88
2021/09/06 03:29:10;;;;;;;;;;;13.20;99.90;;;;;;4994005;28;20351;-87
2021/09/06 03:31:36;;;;;;;;;;;13.10;99.90;;;;;;4986852;28;20389;-87
2021/09/06 03:34:03;;;;;;;;;;;13.10;99.90;;;;;;4986111;28;20005;-88
2021/09/06 03:36:30;;;;;;;;;;;12.80;99.90;;;;;;4986772;28;19933;-88
2021/09/06 03:38:56;;;;;;;;;;;12.90;99.90;;;;;;4983624;28;19925;-87
2021/09/06 03:41:24;;;;;;;;;;;13.00;99.90;;;;;;4982329;28;19953;-86
2021/09/06 03:43:52;;;;;;;;;;;13.00;99.90;;;;;;4985351;28;20057;-87
2021/09/06 03:46:20;;;;;;;;;;;13.00;99.90;;;;;;4978247;28;19967;-85
2021/09/06 03:48:50;;;;;;;;;;;13.00;99.90;;;;;;4982296;28;19930;-85
2021/09/06 03:51:17;;;;;;;;;;;13.00;99.90;;;;;;4989856;28;20015;-86
2021/09/06 03:53:43;;;;;;;;;;;12.90;99.90;;;;;;4985315;28;19968;-86
2021/09/06 03:56:10;;;;;;;;;;;12.90;99.90;;;;;;4983984;28;19957;-86
2021/09/06 03:58:40;;;;;;;;;;;12.90;99.90;;;;;;4983020;28;20025;-87
2021/09/06 04:01:08;;;;;;;;;;;12.90;99.90;;;;;;4992202;28;20480;-86
2021/09/06 04:03:35;;;;;;;;;;;12.80;99.90;;;;;;4984893;28;20000;-86
2021/09/06 04:06:01;;;;;;;;;;;12.80;99.90;;;;;;4991690;28;20057;-86
2021/09/06 04:08:28;;;;;;;;;;;12.70;99.90;;;;;;4984109;28;20033;-86
2021/09/06 04:11:04;;;;;;;;;;;12.70;99.90;;;;;;4986558;28;20036;-86
2021/09/06 04:13:31;;;;;;;;;;;12.70;99.90;;;;;;4991102;28;19951;-86
2021/09/06 04:15:58;;;;;;;;;;;12.60;99.90;;;;;;4978584;28;19926;-86
2021/09/06 04:18:27;;;;;;;;;;;12.60;99.90;;;;;;4983064;28;19971;-85
2021/09/06 04:20:55;;;;;;;;;;;12.50;99.90;;;;;;4989143;28;19961;-85
2021/09/06 04:23:21;;;;;;;;;;;12.50;99.90;;;;;;4988476;28;19932;-86
2021/09/06 04:25:48;;;;;;;;;;;12.50;99.90;;;;;;4990171;28;19930;-86
2021/09/06 04:28:15;;;;;;;;;;;12.50;99.90;;;;;;4972759;28;19972;-86
2021/09/06 04:30:42;;;;;;;;;;;12.50;99.90;;;;;;4981062;28;20019;-86
2021/09/06 04:33:09;;;;;;;;;;;12.70;99.90;;;;;;4975401;28;20005;-86
2021/09/06 04:35:37;;;;;;;;;;;12.60;99.90;;;;;;4982189;28;19983;-85
2021/09/06 04:38:12;;;;;;;;;;;12.50;99.90;;;;;;4983981;28;19926;-86
2021/09/06 04:40:40;;;;;;;;;;;12.50;99.90;;;;;;4989002;28;19932;-86
2021/09/06 04:43:07;;;;;;;;;;;12.60;99.90;;;;;;4985135;28;19934;-86
2021/09/06 04:45:34;;;;;;;;;;;12.50;99.90;;;;;;4980295;28;19980;-87
2021/09/06 04:48:00;;;;;;;;;;;12.60;99.90;;;;;;4983690;28;20066;-84
2021/09/06 04:50:30;;;;;;;;;;;12.50;99.90;;;;;;4983728;28;20049;-85
2021/09/06 04:52:58;;;;;;;;;;;12.40;99.90;;;;;;4981346;28;20045;-87
2021/09/06 04:55:25;;;;;;;;;;;12.50;99.90;;;;;;4973952;28;19972;-87
2021/09/06 04:57:51;;;;;;;;;;;12.60;99.90;;;;;;4975316;28;20375;-85
2021/09/06 05:02:59;;;;;;;;;;;12.50;99.90;;;;;;4981556;28;19957;-85
2021/09/06 05:05:25;;;;;;;;;;;12.50;99.90;;;;;;4972116;28;20074;-86
2021/09/06 05:07:52;;;;;;;;;;;12.50;99.90;;;;;;4977739;28;20040;-86
2021/09/06 05:10:20;;;;;;;;;;;12.50;99.90;;;;;;4973249;28;19987;-85
2021/09/06 05:12:47;;;;;;;;;;;12.60;99.90;;;;;;4984186;28;20054;-86
2021/09/06 05:15:14;;;;;;;;;;;12.70;99.90;;;;;;4988470;28;19980;-86
2021/09/06 05:17:41;;;;;;;;;;;12.60;99.90;;;;;;4984246;28;19945;-86
2021/09/06 05:20:08;;;;;;;;;;;12.60;99.90;;;;;;4987065;28;19994;-87
2021/09/06 05:22:35;;;;;;;;;;;12.60;99.90;;;;;;4983632;28;19949;-86
2021/09/06 05:25:01;;;;;;;;;;;12.80;99.90;;;;;;4982238;28;20046;-86
2021/09/06 05:27:29;;;;;;;;;;;12.80;99.90;;;;;;4977053;28;20052;-84
2021/09/06 05:29:56;;;;;;;;;;;12.80;99.90;;;;;;4982698;28;19944;-86
2021/09/06 05:32:24;;;;;;;;;;;12.80;99.90;;;;;;4989820;28;19954;-86
2021/09/06 05:34:50;;;;;;;;;;;12.80;99.90;;;;;;4972665;28;20064;-87
2021/09/06 05:37:17;;;;;;;;;;;12.80;99.90;;;;;;4977933;28;19943;-87
2021/09/06 05:39:44;;;;;;;;;;;12.80;99.90;;;;;;4979346;28;19982;-86
2021/09/06 05:42:10;;;;;;;;;;;12.90;99.90;;;;;;4981644;28;20438;-86
2021/09/06 05:44:38;;;;;;;;;;;12.90;99.90;;;;;;4973925;28;20025;-83
2021/09/06 05:47:06;;;;;;;;;;;13.00;99.90;;;;;;4977550;28;19942;-84
2021/09/06 05:49:33;;;;;;;;;;;13.10;99.90;;;;;;4984005;28;20367;-84
2021/09/06 05:52:00;;;;;;;;;;;13.20;99.90;;;;;;4980248;28;20328;-83
2021/09/06 05:54:27;;;;;;;;;;;13.10;99.90;;;;;;4982353;28;20075;-84
2021/09/06 05:56:53;;;;;;;;;;;13.20;99.90;;;;;;4982642;28;19926;-85
2021/09/06 05:59:20;;;;;;;;;;;13.30;99.90;;;;;;4987858;28;20022;-83
2021/09/06 06:01:48;;;;;;;;;;;13.40;99.90;;;;;;4976414;28;20069;-84
2021/09/06 06:04:15;;;;;;;;;;;13.50;99.90;;;;;;4976378;28;19948;-85
2021/09/06 06:06:41;;;;;;;;;;;13.60;99.90;;;;;;4979736;28;20491;-82
2021/09/06 06:09:08;;;;;;;;;;;13.70;99.90;;;;;;4980297;28;19956;-81
2021/09/06 06:11:37;;;;;;;;;;;13.80;99.90;;;;;;4978637;28;20446;-82
2021/09/06 06:14:04;;;;;;;;;;;13.90;99.90;;;;;;4984702;28;19946;-80
2021/09/06 06:16:31;;;;;;;;;;;14.20;99.90;;;;;;4983295;28;19960;-83
2021/09/06 06:18:59;;;;;;;;;;;14.20;99.90;;;;;;4986767;28;20485;-81
2021/09/06 06:21:26;;;;;;;;;;;14.30;99.90;;;;;;4979503;28;20052;-81
2021/09/06 06:23:53;;;;;;;;;;;14.40;99.90;;;;;;4988145;28;19953;-81
2021/09/06 06:26:19;;;;;;;;;;;14.50;99.90;;;;;;4985213;28;20011;-76
2021/09/06 06:28:46;;;;;;;;;;;14.60;99.90;;;;;;4975004;28;19972;-77
2021/09/06 06:31:13;;;;;;;;;;;14.70;99.90;;;;;;4982309;28;20254;-80
2021/09/06 06:33:39;;;;;;;;;;;14.70;99.90;;;;;;4980031;28;20166;-83
2021/09/06 06:36:08;;;;;;;;;;;14.70;99.90;;;;;;4978852;28;19986;-79
2021/09/06 06:38:35;;;;;;;;;;;14.80;99.90;;;;;;4978033;28;19940;-78
2021/09/06 06:41:03;;;;;;;;;;;15.00;99.90;;;;;;4978897;28;20051;-79
2021/09/06 06:43:30;;;;;;;;;;;15.00;99.90;;;;;;4979407;28;20003;-79
2021/09/06 06:45:57;;;;;;;;;;;15.10;99.90;;;;;;4978326;28;19958;-84
2021/09/06 06:48:23;;;;;;;;;;;15.20;99.90;;;;;;4977884;28;19958;-82
2021/09/06 06:50:50;;;;;;;;;;;15.30;99.90;;;;;;4978770;28;20039;-82
2021/09/06 06:53:18;;;;;;;;;;;15.40;99.90;;;;;;4977324;28;19947;-80
2021/09/06 06:55:45;;;;;;;;;;;15.50;99.90;;;;;;4977844;28;20036;-81
2021/09/06 06:58:12;;;;;;;;;;;15.50;99.90;;;;;;4972827;28;19965;-80
2021/09/06 07:00:38;;;;;;;;;;;15.60;99.90;;;;;;4981094;28;19949;-81
2021/09/06 07:03:05;;;;;;;;;;;15.60;99.90;;;;;;4981297;28;19944;-79
2021/09/06 07:05:34;;;;;;;;;;;15.50;99.90;;;;;;4980491;28;20033;-80
2021/09/06 07:08:00;;;;;;;;;;;15.60;99.90;;;;;;4983950;28;20032;-83
2021/09/06 07:10:28;;;;;;;;;;;15.80;99.90;;;;;;4975025;28;19984;-81
2021/09/06 07:12:55;;;;;;;;;;;16.00;99.90;;;;;;4980470;28;20451;-80
2021/09/06 07:15:22;;;;;;;;;;;16.10;99.90;;;;;;4984854;28;20001;-80
2021/09/06 07:17:49;;;;;;;;;;;16.40;99.90;;;;;;4977584;28;19947;-81
2021/09/06 07:20:16;;;;;;;;;;;16.90;99.90;;;;;;4982789;28;19991;-81
2021/09/06 07:22:43;;;;;;;;;;;19.10;99.90;;;;;;4974952;28;20006;-78
2021/09/06 07:25:11;;;;;;;;;;;21.40;99.90;;;;;;4981722;28;19970;-76
2021/09/06 07:27:39;;;;;;;;;;;23.00;99.90;;;;;;4980288;28;20048;-79
2021/09/06 07:30:06;;;;;;;;;;;22.20;99.90;;;;;;4981329;28;19948;-82
2021/09/06 07:32:33;;;;;;;;;;;21.60;99.90;;;;;;4981219;28;19944;-79
2021/09/06 07:34:59;;;;;;;;;;;22.10;99.90;;;;;;4972784;28;19953;-81
2021/09/06 07:37:26;;;;;;;;;;;21.50;99.90;;;;;;4980776;28;19955;-82
2021/09/06 07:39:53;;;;;;;;;;;21.50;99.90;;;;;;4985089;28;19974;-81
2021/09/06 07:42:19;;;;;;;;;;;21.50;99.90;;;;;;4980825;28;19952;-82
2021/09/06 07:44:47;;;;;;;;;;;22.40;99.90;;;;;;4977748;28;19945;-79
2021/09/06 07:47:14;;;;;;;;;;;22.20;99.90;;;;;;4977517;28;20100;-79
2021/09/06 07:49:42;;;;;;;;;;;22.30;99.90;;;;;;4972095;28;19952;-81
2021/09/06 07:52:08;;;;;;;;;;;21.90;99.90;;;;;;4976269;28;19945;-79
2021/09/06 07:54:35;;;;;;;;;;;21.80;99.90;;;;;;4978395;28;19947;-82
2021/09/06 07:57:02;;;;;;;;;;;22.20;99.90;;;;;;4982018;28;19944;-80
2021/09/06 07:59:28;;;;;;;;;;;23.10;99.90;;;;;;4985199;28;19955;-80
2021/09/06 08:01:56;;;;;;;;;;;25.40;99.90;;;;;;4982468;28;19943;-81
2021/09/06 08:04:23;;;;;;;;;;;26.40;99.90;;;;;;4981376;28;20034;-79
2021/09/06 08:06:50;;;;;;;;;;;24.70;99.90;;;;;;4981119;28;20006;-82
2021/09/06 08:09:16;;;;;;;;;;;23.40;99.90;;;;;;4976508;28;20027;-81
2021/09/06 08:11:46;;;;;;;;;;;23.70;99.90;;;;;;4978289;28;20390;-79
2021/09/06 08:14:13;;;;;;;;;;;24.30;99.90;;;;;;4980731;28;20409;-80
2021/09/06 08:16:39;;;;;;;;;;;23.70;99.90;;;;;;4979750;28;19944;-78
2021/09/06 08:19:08;;;;;;;;;;;23.90;99.90;;;;;;4977719;28;19940;-82
2021/09/06 08:21:34;;;;;;;;;;;24.90;99.90;;;;;;4981226;28;20049;-77
2021/09/06 08:24:01;;;;;;;;;;;25.40;99.90;;;;;;4976972;28;20020;-78
2021/09/06 08:26:28;;;;;;;;;;;27.00;99.90;;;;;;4981211;28;19991;-80
2021/09/06 08:28:55;;;;;;;;;;;27.90;99.90;;;;;;4976455;28;20283;-82
2021/09/06 08:31:22;;;;;;;;;;;26.40;99.90;;;;;;4973793;28;19944;-81
2021/09/06 08:33:48;;;;;;;;;;;25.20;99.90;;;;;;4974647;28;19943;-79
2021/09/06 08:36:17;;;;;;;;;;;26.30;99.90;;;;;;4978193;28;19948;-81
2021/09/06 08:38:44;;;;;;;;;;;26.60;99.90;;;;;;4976224;28;19999;-81
2021/09/06 08:41:10;;;;;;;;;;;26.20;99.90;;;;;;4976534;28;19985;-81
2021/09/06 08:43:37;;;;;;;;;;;27.90;99.90;;;;;;4975350;28;20051;-82
2021/09/06 08:46:04;;;;;;;;;;;29.80;97.90;;;;;;4976405;28;20465;-85
2021/09/06 08:48:31;;;;;;;;;;;28.90;95.90;;;;;;4973183;28;19982;-83
2021/09/06 08:50:57;;;;;;;;;;;29.40;96.00;;;;;;4978997;28;20706;-81
2021/09/06 08:53:25;;;;;;;;;;;29.80;93.90;;;;;;4980665;28;19948;-83
2021/09/06 08:55:53;;;;;;;;;;;28.40;94.50;;;;;;4980618;28;19954;-86
2021/09/06 08:58:19;;;;;;;;;;;28.10;94.70;;;;;;4973368;28;20035;-86
2021/09/06 09:00:47;;;;;;;;;;;28.30;94.20;;;;;;4980597;28;20292;-78
2021/09/06 09:03:14;;;;;;;;;;;29.50;93.20;;;;;;4979536;28;20382;-77
2021/09/06 09:05:40;;;;;;;;;;;27.40;94.80;;;;;;4977526;28;19948;-80
2021/09/06 09:08:07;;;;;;;;;;;27.00;94.40;;;;;;4976879;28;19959;-85
2021/09/06 09:10:38;;;;;;;;;;;28.00;93.30;;;;;;4990355;28;19959;-83
2021/09/06 09:13:05;;;;;;;;;;;25.40;99.90;;;;;;4974031;28;19930;-83
2021/09/06 09:15:32;;;;;;;;;;;26.60;98.20;;;;;;4979425;28;19964;-80
2021/09/06 09:17:59;;;;;;;;;;;25.30;99.70;;;;;;4973072;28;19961;-81
2021/09/06 09:20:36;;;;;;;;;;;25.20;99.90;;;;;;4981414;28;19951;-81
2021/09/06 09:23:03;;;;;;;;;;;26.30;99.90;;;;;;4977540;28;20033;-80
2021/09/06 09:25:31;;;;;;;;;;;27.00;97.80;;;;;;4982160;28;20355;-80
2021/09/06 09:27:59;;;;;;;;;;;27.30;96.50;;;;;;4980965;28;20416;-80
2021/09/06 09:30:27;;;;;;;;;;;25.80;97.70;;;;;;4984521;28;20024;-80
2021/09/06 09:33:03;;;;;;;;;;;25.00;99.90;;;;;;4979857;28;19990;-81
2021/09/06 09:35:30;;;;;;;;;;;25.00;99.90;;;;;;4979654;28;20012;-80
2021/09/06 09:38:01;;;;;;;;;;;26.80;99.80;;;;;;4980729;28;19932;-80
2021/09/06 09:40:31;;;;;;;;;;;27.30;97.60;;;;;;4988814;28;19925;-80
2021/09/06 09:43:00;;;;;;;;;;;27.70;96.70;;;;;;4986418;28;20373;-80
2021/09/06 09:45:26;;;;;;;;;;;26.10;97.20;;;;;;4977907;28;20028;-80
2021/09/06 09:47:54;;;;;;;;;;;25.50;99.70;;;;;;4986625;28;20009;-80
2021/09/06 09:50:22;;;;;;;;;;;25.10;99.90;;;;;;4984025;28;19933;-81
2021/09/06 09:52:49;;;;;;;;;;;25.20;99.90;;;;;;4984494;28;20029;-81
2021/09/06 09:55:16;;;;;;;;;;;25.10;99.90;;;;;;4991991;28;19933;-80
2021/09/06 09:57:43;;;;;;;;;;;23.60;99.90;;;;;;4987004;28;19926;-80
2021/09/06 10:00:12;;;;;;;;;;;23.30;99.90;;;;;;4986948;28;20319;-80
2021/09/06 10:02:40;;;;;;;;;;;23.10;99.90;;;;;;4961313;28;19926;-80
2021/09/06 10:05:09;;;;;;;;;;;23.00;99.90;;;;;;4984914;28;20135;-80
2021/09/06 10:07:37;;;;;;;;;;;23.00;99.90;;;;;;4981060;28;19984;-82
2021/09/06 10:10:11;;;;;;;;;;;23.10;99.90;;;;;;4989036;28;19989;-81
2021/09/06 10:12:38;;;;;;;;;;;23.00;99.90;;;;;;4991609;28;19934;-85
2021/09/06 10:15:06;;;;;;;;;;;22.90;99.90;;;;;;4988525;28;20020;-81
2021/09/06 10:17:38;;;;;;;;;;;23.10;99.90;;;;;;4983747;28;19930;-81
2021/09/06 10:20:16;;;;;;;;;;;23.20;99.90;;;;;;4985292;28;19926;-81
2021/09/06 10:22:44;;;;;;;;;;;23.40;99.90;;;;;;4981873;28;19930;-81
2021/09/06 10:25:12;;;;;;;;;;;23.30;99.90;;;;;;4977961;28;20274;-82
2021/09/06 10:27:50;;;;;;;;;;;23.10;99.90;;;;;;4980014;28;19969;-82
2021/09/06 10:30:17;;;;;;;;;;;23.40;99.90;;;;;;4978333;28;19933;-82
2021/09/06 10:32:46;;;;;;;;;;;23.40;99.90;;;;;;4982070;28;19965;-81
2021/09/06 10:35:18;;;;;;;;;;;23.40;99.90;;;;;;4981636;28;19930;-79
2021/09/06 10:37:46;;;;;;;;;;;23.10;99.90;;;;;;4975393;28;19934;-77
2021/09/06 10:40:13;;;;;;;;;;;23.20;99.90;;;;;;4987376;28;19930;-78
2021/09/06 10:42:41;;;;;;;;;;;23.20;99.90;;;;;;4979042;28;20302;-81
2021/09/06 10:45:09;;;;;;;;;;;23.60;99.90;;;;;;4978860;28;19929;-81
2021/09/06 10:47:36;;;;;;;;;;;23.70;99.90;;;;;;4976834;28;19926;-78
2021/09/06 10:50:16;;;;;;;;;;;23.60;99.90;;;;;;4980905;28;20285;-80
2021/09/06 10:52:44;;;;;;;;;;;23.30;99.90;;;;;;4981409;28;19930;-81
2021/09/06 10:55:11;;;;;;;;;;;23.40;99.90;;;;;;4981068;28;20442;-80
2021/09/06 10:57:38;;;;;;;;;;;23.80;99.90;;;;;;4979912;28;19933;-81
2021/09/06 11:00:05;;;;;;;;;;;23.50;99.90;;;;;;4978535;28;19934;-82
2021/09/06 11:02:32;;;;;;;;;;;23.60;99.90;;;;;;4979455;28;20323;-82
2021/09/06 11:04:59;;;;;;;;;;;24.20;99.90;;;;;;4980714;28;19929;-79
2021/09/06 11:07:27;;;;;;;;;;;24.20;99.90;;;;;;4982493;28;19925;-81
2021/09/06 11:09:53;;;;;;;;;;;24.40;99.70;;;;;;4982648;28;19977;-83
2021/09/06 11:12:20;;;;;;;;;;;24.30;99.90;;;;;;4981603;28;19949;-80
2021/09/06 11:14:47;;;;;;;;;;;24.30;99.60;;;;;;4976372;28;19926;-76
2021/09/06 11:17:18;;;;;;;;;;;24.50;99.90;;;;;;4974708;28;20596;-83
2021/09/06 11:19:46;;;;;;;;;;;24.50;98.90;;;;;;4979568;28;19966;-83
2021/09/06 11:22:17;;;;;;;;;;;24.60;98.30;;;;;;4972842;28;19949;-76
2021/09/06 11:24:46;;;;;;;;;;;24.80;97.30;;;;;;4978474;28;19938;-79
2021/09/06 11:27:23;;;;;;;;;;;25.10;97.40;;;;;;4975770;28;20312;-81
2021/09/06 11:29:50;;;;;;;;;;;25.10;96.50;;;;;;4976936;28;20389;-81
2021/09/06 11:32:16;;;;;;;;;;;25.10;97.20;;;;;;4973353;28;21796;-81
2021/09/06 11:34:43;;;;;;;;;;;25.00;97.40;;;;;;4977957;28;19938;-82
2021/09/06 11:37:10;;;;;;;;;;;25.30;97.40;;;;;;4980951;28;20017;-80
2021/09/06 11:39:37;;;;;;;;;;;25.20;98.00;;;;;;4975660;28;19930;-81
2021/09/06 11:42:05;;;;;;;;;;;25.10;97.80;;;;;;4979677;28;19926;-81
2021/09/06 11:44:32;;;;;;;;;;;25.40;95.70;;;;;;4980461;28;20076;-84
2021/09/06 11:47:00;;;;;;;;;;;25.10;95.10;;;;;;4980331;28;20240;-81
2021/09/06 11:49:27;;;;;;;;;;;25.10;95.10;;;;;;4980922;28;19934;-79
2021/09/06 11:51:54;;;;;;;;;;;25.50;95.80;;;;;;4976762;28;19930;-80
2021/09/06 11:54:22;;;;;;;;;;;25.90;94.50;;;;;;4982897;28;20009;-78
2021/09/06 11:56:58;;;;;;;;;;;25.90;94.10;;;;;;4980973;28;20008;-81
2021/09/06 11:59:29;;;;;;;;;;;25.70;94.40;;;;;;4978113;28;20676;-82
2021/09/06 12:01:56;;;;;;;;;;;24.80;94.40;;;;;;4977543;28;19938;-80
2021/09/06 12:04:23;;;;;;;;;;;24.90;95.80;;;;;;4979444;28;19955;-81
2021/09/06 12:06:49;;;;;;;;;;;24.80;93.50;;;;;;4985479;28;20031;-83
2021/09/06 12:09:17;;;;;;;;;;;24.80;94.10;;;;;;4980570;28;19937;-77
2021/09/06 12:11:46;;;;;;;;;;;25.00;94.10;;;;;;4979363;28;20043;-80
2021/09/06 12:14:13;;;;;;;;;;;25.10;94.60;;;;;;4980217;28;19961;-80
2021/09/06 12:16:41;;;;;;;;;;;25.50;94.10;;;;;;4984092;28;19986;-80
2021/09/06 12:19:16;;;;;;;;;;;25.30;95.30;;;;;;4975399;28;19946;-80
2021/09/06 12:21:43;;;;;;;;;;;25.20;95.10;;;;;;4971271;28;19942;-80
2021/09/06 12:24:10;;;;;;;;;;;25.60;94.10;;;;;;4989187;28;19951;-80
2021/09/06 12:26:40;;;;;;;;;;;25.60;95.80;;;;;;4979643;28;20399;-82
2021/09/06 12:29:07;;;;;;;;;;;25.30;95.20;;;;;;4977559;28;20059;-82
2021/09/06 12:31:46;;;;;;;;;;;24.90;95.00;;;;;;4981165;28;19948;-84
2021/09/06 12:34:13;;;;;;;;;;;24.70;96.60;;;;;;4980623;28;19954;-83
2021/09/06 12:36:41;;;;;;;;;;;24.90;94.10;;;;;;4977630;28;20511;-80
2021/09/06 12:39:08;;;;;;;;;;;25.00;92.80;;;;;;4979771;28;19926;-85
2021/09/06 12:41:34;;;;;;;;;;;25.20;89.70;;;;;;4977806;28;20288;-83
2021/09/06 12:44:01;;;;;;;;;;;25.10;87.50;;;;;;4977742;28;20036;-83
2021/09/06 12:46:29;;;;;;;;;;;25.20;91.10;;;;;;4980690;28;19934;-80
2021/09/06 12:48:57;;;;;;;;;;;25.50;92.40;;;;;;4978026;28;19972;-78
2021/09/06 12:51:23;;;;;;;;;;;25.40;93.30;;;;;;4981661;28;20017;-80
2021/09/06 12:53:50;;;;;;;;;;;25.20;93.30;;;;;;4977856;28;20303;-83
2021/09/06 12:56:17;;;;;;;;;;;25.40;93.20;;;;;;4982542;28;19973;-80
2021/09/06 12:58:43;;;;;;;;;;;25.30;84.30;;;;;;4979174;28;19926;-83
2021/09/06 13:01:10;;;;;;;;;;;25.70;90.00;;;;;;4977149;28;20025;-80
2021/09/06 13:03:37;;;;;;;;;;;25.50;86.40;;;;;;4973280;28;19944;-75
2021/09/06 13:06:05;;;;;;;;;;;25.80;83.80;;;;;;4974786;28;20011;-78
2021/09/06 13:08:32;;;;;;;;;;;26.10;84.60;;;;;;4980211;28;19932;-79
2021/09/06 13:10:59;;;;;;;;;;;25.80;82.20;;;;;;4981527;28;20032;-79
2021/09/06 13:13:27;;;;;;;;;;;25.90;84.10;;;;;;4974472;28;20040;-80
2021/09/06 13:15:57;;;;;;;;;;;25.60;82.10;;;;;;4979702;28;19991;-79
2021/09/06 13:18:23;;;;;;;;;;;25.80;78.50;;;;;;4976114;28;20397;-81
2021/09/06 13:20:50;;;;;;;;;;;26.00;81.40;;;;;;4980590;28;20044;-81
2021/09/06 13:23:18;;;;;;;;;;;26.10;82.40;;;;;;4975128;28;20028;-81
2021/09/06 13:25:45;;;;;;;;;;;26.00;83.40;;;;;;4975630;28;19936;-82
2021/09/06 13:28:11;;;;;;;;;;;26.00;81.00;;;;;;4977065;28;19997;-81
2021/09/06 13:30:38;;;;;;;;;;;26.30;78.40;;;;;;4976636;28;20028;-82
2021/09/06 13:33:05;;;;;;;;;;;26.10;77.70;;;;;;4971371;28;19933;-83
2021/09/06 13:35:32;;;;;;;;;;;26.10;80.10;;;;;;4973082;28;20040;-79
2021/09/06 13:37:58;;;;;;;;;;;26.20;76.60;;;;;;4978806;28;19934;-80
2021/09/06 13:40:26;;;;;;;;;;;26.60;78.00;;;;;;4975660;28;19940;-80
2021/09/06 13:42:53;;;;;;;;;;;26.40;81.70;;;;;;4972726;28;20028;-79
2021/09/06 13:45:20;;;;;;;;;;;26.50;79.40;;;;;;4974095;28;20661;-82
2021/09/06 13:47:46;;;;;;;;;;;27.00;77.20;;;;;;4982059;28;20389;-83
2021/09/06 13:50:13;;;;;;;;;;;26.70;78.70;;;;;;4978980;28;20373;-82
2021/09/06 13:52:40;;;;;;;;;;;26.40;82.10;;;;;;4978736;28;19977;-86
2021/09/06 13:55:07;;;;;;;;;;;26.70;76.20;;;;;;4973449;28;19926;-84
2021/09/06 13:57:35;;;;;;;;;;;26.80;74.00;;;;;;4976641;28;19973;-76
2021/09/06 14:00:02;;;;;;;;;;;26.80;75.30;;;;;;4977680;28;20012;-84
2021/09/06 14:02:28;;;;;;;;;;;26.30;77.50;;;;;;4964426;28;19934;-85
2021/09/06 14:04:56;;;;;;;;;;;26.20;76.90;;;;;;4966561;28;19934;-82
2021/09/06 14:07:23;;;;;;;;;;;25.90;78.40;;;;;;4978516;28;20029;-81
2021/09/06 14:09:50;;;;;;;;;;;25.70;77.10;;;;;;4979533;28;19927;-81
2021/09/06 14:12:16;;;;;;;;;;;25.80;77.80;;;;;;4983475;28;20080;-83
2021/09/06 14:14:44;;;;;;;;;;;26.00;76.90;;;;;;4984349;28;19925;-85
2021/09/06 14:17:13;;;;;;;;;;;25.80;77.30;;;;;;4983416;28;19927;-80
2021/09/06 14:19:39;;;;;;;;;;;25.50;75.80;;;;;;4976607;28;19981;-79